createdAt,value
2023-04-06T00:00:01.929Z,100.53
2023-04-06T00:15:01.854Z,100.21
2023-04-06T00:30:02.292Z,99.56
2023-04-06T00:45:01.724Z,100.41
2023-04-06T01:00:02.089Z,100.9
2023-04-06T01:15:01.985Z,100.21
2023-04-06T01:30:02.211Z,99.48
2023-04-06T01:45:01.654Z,100.13
2023-04-06T02:00:02.123Z,101.79
2023-04-06T02:15:03.075Z,101.6
2023-04-06T02:30:02.218Z,101.26
2023-04-06T02:45:01.856Z,102.4
2023-04-06T03:00:02.241Z,104.34
2023-04-06T03:15:01.759Z,103.53
2023-04-06T03:30:02.314Z,102.68
2023-04-06T03:45:01.451Z,102.72
2023-04-06T04:00:02.324Z,102.56
2023-04-06T04:15:01.786Z,102.23
2023-04-06T04:30:02.384Z,102.68
2023-04-06T04:45:01.504Z,102.48
2023-04-06T05:00:02.480Z,101.63
2023-04-06T05:15:01.832Z,101.34
2023-04-06T05:30:02.600Z,101.83
2023-04-06T05:45:01.611Z,100.7
2023-04-06T06:00:02.597Z,99.4
2023-04-06T06:15:02.020Z,96.65
2023-04-06T06:30:01.397Z,96.53
2023-04-06T06:45:01.929Z,94.87
2023-04-06T07:00:02.731Z,82.97
2023-04-06T07:15:01.460Z,80.46
2023-04-06T07:30:01.750Z,76.7
2023-04-06T07:45:02.054Z,76.7
2023-04-06T08:00:02.547Z,76.7
2023-04-06T08:15:03.025Z,76.7
2023-04-06T08:30:01.584Z,76.7
2023-04-06T08:45:02.203Z,46.34
2023-04-06T09:00:01.276Z,42.62
2023-04-06T09:15:02.899Z,39.62
2023-04-06T09:30:01.544Z,39.62
2023-04-06T09:45:01.994Z,39.62
2023-04-06T10:00:02.429Z,34.28
2023-04-06T10:15:02.313Z,32.1
2023-04-06T10:30:01.690Z,32.1
2023-04-06T10:45:02.682Z,32.1
2023-04-06T11:00:01.304Z,32.1
2023-04-06T11:15:02.142Z,32.1
2023-04-06T11:30:02.079Z,23.27
2023-04-06T11:45:02.074Z,20.8
2023-04-06T12:00:03.154Z,23.76
2023-04-06T12:15:03.482Z,26.19
2023-04-06T12:30:01.601Z,22.22
2023-04-06T12:45:02.643Z,23.52
2023-04-06T13:00:02.576Z,23.52
2023-04-06T13:15:03.006Z,23.52
2023-04-06T13:30:02.227Z,23.52
2023-04-06T13:45:01.905Z,23.52
2023-04-06T14:00:03.878Z,23.52
2023-04-06T14:15:02.942Z,23.52
2023-04-06T14:30:01.372Z,23.52
2023-04-06T14:45:02.113Z,23.52
2023-04-06T15:00:02.492Z,23.52
2023-04-06T15:15:01.487Z,23.52
2023-04-06T15:30:02.651Z,36.14
2023-04-06T15:45:02.754Z,34
2023-04-06T16:00:01.836Z,34
2023-04-06T16:15:01.909Z,34
2023-04-06T16:45:02.834Z,34
2023-04-06T17:00:01.607Z,34
2023-04-06T17:15:01.816Z,34
2023-04-06T17:30:02.390Z,34
2023-04-06T17:45:01.412Z,34
2023-04-06T18:00:02.701Z,34
2023-04-06T18:15:02.403Z,34
2023-04-06T18:30:01.529Z,34
2023-04-06T18:45:01.818Z,34
2023-04-06T19:00:02.017Z,34
2023-04-06T19:15:03.016Z,77.63
2023-04-06T19:30:02.141Z,77.95
2023-04-06T19:45:02.103Z,81.35
2023-04-06T20:00:02.629Z,83.9
2023-04-06T20:15:01.928Z,85.32
2023-04-06T20:30:02.105Z,83.98
2023-04-06T20:45:01.623Z,86.69
2023-04-06T21:00:02.190Z,88.43
2023-04-06T21:15:03.103Z,89.28
2023-04-06T21:30:02.216Z,91.31
2023-04-06T21:45:01.915Z,91.2
2023-04-06T22:00:02.294Z,91.63
2023-04-06T22:15:02.170Z,92.32
2023-04-06T22:30:02.281Z,91.19
2023-04-06T22:45:01.683Z,90.5
2023-04-06T23:00:02.291Z,91.31
2023-04-06T23:15:01.666Z,91.63
2023-04-06T23:30:02.349Z,92.44
2023-04-06T23:45:01.473Z,92.76
